Gosnold, Massachusetts
Current Conditions -  °F | °C
As of 7:53 PM on Friday 24 Oct 2014 (Local Time) from KMVY Reporting Station
Overcast Overcast  
Wind Chill: 52°   Ceiling: 2600
Heat Index: 52°   Visibility: 10mi
Dew Point: 44°   Wind: 9mph
Humidity: 74%   Direction: 310°NW
Pressure: 29.73"   Gusts: NA
Location:  41.4796°N, 70.7571°W
Report Text: KMVY 242353Z 31008KT 10SM OVC026 11/07 A2973 RMK AO2 SLP066 T01110067 10122 20111 51010
Loading
Personal Weather Stations






























Interactive Weather Map
Tropical Storm Tracking
New forecast layout! Learn more

10-Day Weather Forecast

Advertisements
Track Severe Weather on mobile